Time;durP1;ratioP1;P1;durP2;ratioP2;P2;SDS_P1;SDS_P2;PMS_P1;PMS_P2;Temp;Humidity;BMP_temperature;BMP_pressure;BME280_temperature;BME280_humidity;BME280_pressure;Samples;Min_cycle;Max_cycle;Signal;HPM_P1;HPM_P2
2022/10/01 00:02:07;;;;;;;22.20;15.70;;;15.80;99.90;;;;;;5010421;28;20053;-64
2022/10/01 00:05:29;;;;;;;24.33;16.00;;;15.80;99.90;;;;;;5009911;28;20041;-64
2022/10/01 00:08:52;;;;;;;22.33;15.40;;;15.90;99.90;;;;;;5010126;28;20049;-64
2022/10/01 00:11:58;;;;;;;31.48;17.45;;;15.90;99.90;;;;;;5010280;28;20467;-64
2022/10/01 00:15:03;;;;;;;28.50;17.00;;;15.90;99.90;;;;;;5009798;28;20064;-64
2022/10/01 00:18:09;;;;;;;22.80;15.55;;;15.90;99.90;;;;;;5009902;28;20077;-64
2022/10/01 00:21:32;;;;;;;20.00;13.95;;;15.90;99.90;;;;;;5009944;28;20053;-64
2022/10/01 00:24:36;;;;;;;30.65;16.02;;;15.90;99.90;;;;;;5009767;28;20049;-64
2022/10/01 00:27:44;;;;;;;22.80;15.70;;;15.90;99.90;;;;;;5009942;28;20049;-64
2022/10/01 00:31:08;;;;;;;21.83;13.70;;;15.90;99.90;;;;;;5010383;28;20481;-63
2022/10/01 00:37:36;;;;;;;29.30;15.32;;;15.90;99.90;;;;;;5009900;28;20057;-64
2022/10/01 00:44:36;;;;;;;16.75;10.18;;;15.80;99.90;;;;;;5009406;28;20110;-63
2022/10/01 00:47:51;;;;;;;16.83;11.82;;;15.70;99.90;;;;;;5009997;28;20041;-64
2022/10/01 00:50:57;;;;;;;19.60;13.55;;;15.60;99.90;;;;;;5009750;28;20045;-64
2022/10/01 00:54:29;;;;;;;17.00;12.98;;;15.60;99.90;;;;;;5009094;28;20072;-64
2022/10/01 00:57:34;;;;;;;23.25;13.50;;;15.40;99.90;;;;;;5011091;28;20041;-64
2022/10/01 01:00:59;;;;;;;23.40;14.23;;;15.30;99.90;;;;;;5012888;28;20062;-64
2022/10/01 01:04:15;;;;;;;20.17;13.93;;;15.20;99.90;;;;;;5012152;28;20053;-64
2022/10/01 01:11:44;;;;;;;21.00;13.98;;;15.00;99.90;;;;;;5013482;28;20033;-64
2022/10/01 01:14:57;;;;;;;25.65;16.73;;;14.80;99.90;;;;;;5012830;28;20049;-64
2022/10/01 01:18:09;;;;;;;21.92;16.70;;;14.70;99.90;;;;;;5013133;28;20377;-64
2022/10/01 01:21:27;;;;;;;22.95;15.65;;;14.70;99.90;;;;;;5012899;28;20049;-64
2022/10/01 01:24:47;;;;;;;24.10;14.30;;;14.60;99.90;;;;;;5012612;28;20049;-65
2022/10/01 01:28:19;;;;;;;25.38;16.05;;;14.70;99.90;;;;;;5012717;28;20389;-63
2022/10/01 01:31:32;;;;;;;31.03;17.67;;;14.70;99.90;;;;;;5012797;28;20052;-64
2022/10/01 01:34:38;;;;;;;29.90;17.20;;;14.80;99.90;;;;;;5012029;28;20272;-64
2022/10/01 01:37:51;;;;;;;25.17;16.75;;;14.80;99.90;;;;;;5012781;28;20496;-64
2022/10/01 01:41:16;;;;;;;34.53;17.20;;;14.90;99.90;;;;;;5012667;28;20069;-64
2022/10/01 01:47:48;;;;;;;39.63;24.27;;;15.00;99.90;;;;;;5012383;28;20052;-65
2022/10/01 01:51:18;;;;;;;46.80;24.08;;;15.10;99.90;;;;;;5012205;28;20046;-63
2022/10/01 01:54:43;;;;;;;38.15;22.88;;;15.10;99.90;;;;;;5011672;28;20052;-63
2022/10/01 01:57:48;;;;;;;35.33;21.23;;;15.10;99.90;;;;;;5012157;28;20491;-63
2022/10/01 02:00:53;;;;;;;35.42;21.80;;;15.10;99.90;;;;;;5011969;28;20045;-64
2022/10/01 02:03:57;;;;;;;30.70;20.15;;;15.00;99.90;;;;;;5011501;28;20072;-64
2022/10/01 02:07:16;;;;;;;32.17;18.98;;;15.00;99.90;;;;;;5012079;28;20068;-63
2022/10/01 02:10:45;;;;;;;28.58;16.92;;;15.00;99.90;;;;;;5010906;28;20385;-63
2022/10/01 02:14:04;;;;;;;29.90;16.00;;;15.10;99.90;;;;;;5011466;28;20049;-64
2022/10/01 02:21:11;;;;;;;25.80;14.50;;;15.00;99.90;;;;;;5011788;28;20045;-63
2022/10/01 02:24:37;;;;;;;20.13;13.65;;;15.00;99.90;;;;;;5011165;28;20045;-64
2022/10/01 02:27:51;;;;;;;17.45;12.30;;;14.90;99.90;;;;;;5011749;28;20044;-64
2022/10/01 02:30:56;;;;;;;16.38;12.30;;;14.80;99.90;;;;;;5011665;28;20052;-64
2022/10/01 02:34:03;;;;;;;18.85;11.90;;;14.70;99.90;;;;;;5011256;28;20048;-64
2022/10/01 02:37:09;;;;;;;16.10;11.73;;;14.60;99.90;;;;;;5010647;28;20061;-64
2022/10/01 02:40:18;;;;;;;23.27;12.85;;;14.50;99.90;;;;;;5011770;28;20045;-64
2022/10/01 02:47:48;;;;;;;16.75;12.82;;;14.40;99.90;;;;;;5011641;28;20045;-63
2022/10/01 02:51:00;;;;;;;13.00;10.40;;;14.30;99.90;;;;;;5011365;28;20057;-64
2022/10/01 02:54:32;;;;;;;12.55;8.10;;;14.30;99.90;;;;;;5010726;28;20056;-64
2022/10/01 02:57:36;;;;;;;7.43;5.38;;;14.20;99.90;;;;;;5010993;28;20048;-64
2022/10/01 03:00:40;;;;;;;7.95;6.30;;;14.20;99.90;;;;;;5011012;28;20049;-64
2022/10/01 03:03:44;;;;;;;12.52;7.43;;;14.10;99.90;;;;;;5010406;28;20385;-63
2022/10/01 03:06:48;;;;;;;11.27;8.13;;;14.10;99.90;;;;;;5010996;28;20492;-64
2022/10/01 03:13:54;;;;;;;10.05;5.75;;;14.00;99.90;;;;;;5010252;28;20496;-64
2022/10/01 03:20:39;;;;;;;52.22;10.02;;;13.90;99.90;;;;;;5010110;28;20052;-63
2022/10/01 03:23:43;;;;;;;54.95;12.20;;;13.80;99.90;;;;;;5010230;28;20069;-63
2022/10/01 03:26:48;;;;;;;142.38;14.38;;;13.80;99.90;;;;;;5010687;28;20048;-64
2022/10/01 03:29:51;;;;;;;208.18;16.45;;;13.80;99.90;;;;;;5010464;28;20037;-63
2022/10/01 03:33:14;;;;;;;114.68;14.00;;;13.80;99.90;;;;;;5010264;28;20048;-63
2022/10/01 03:36:36;;;;;;;;;;;13.90;99.90;;;;;;5011089;28;20049;-63
2022/10/01 03:39:41;;;;;;;201.45;19.63;;;13.90;99.90;;;;;;5010574;28;19913;-64
2022/10/01 03:42:47;;;;;;;143.05;19.15;;;14.00;99.90;;;;;;5009774;28;20056;-63
2022/10/01 03:45:50;;;;;;;41.10;17.38;;;14.00;99.90;;;;;;5010527;28;20053;-63
2022/10/01 03:49:13;;;;;;;26.40;12.50;;;13.90;99.90;;;;;;5010387;28;20053;-63
2022/10/01 03:52:17;;;;;;;15.93;9.20;;;13.80;99.90;;;;;;5010021;28;20053;-63
2022/10/01 03:55:24;;;;;;;13.23;5.93;;;13.80;99.90;;;;;;5009896;28;20053;-63
2022/10/01 03:58:28;;;;;;;10.98;4.93;;;13.60;99.90;;;;;;5010226;28;20493;-63
2022/10/01 04:01:51;;;;;;;8.85;4.03;;;13.60;99.90;;;;;;5009995;28;20060;-63
2022/10/01 04:05:14;;;;;;;4.05;2.30;;;13.50;99.90;;;;;;5009875;28;20045;-63
2022/10/01 04:08:18;;;;;;;2.60;2.00;;;13.40;99.90;;;;;;5010446;28;20049;-63
2022/10/01 04:11:22;;;;;;;4.15;1.65;;;13.30;99.90;;;;;;5009986;28;20036;-63
2022/10/01 04:14:44;;;;;;;3.47;1.40;;;13.30;99.90;;;;;;5009190;28;20049;-63
2022/10/01 04:18:26;;;;;;;4.82;1.70;;;13.30;99.90;;;;;;5009833;28;20037;-63
2022/10/01 04:21:48;;;;;;;7.28;1.60;;;13.20;99.90;;;;;;5009577;28;20049;-63
2022/10/01 04:25:12;;;;;;;6.05;2.08;;;13.10;99.90;;;;;;5009519;28;20052;-63
2022/10/01 04:28:17;;;;;;;6.72;2.17;;;13.10;99.90;;;;;;5010233;28;20504;-63
2022/10/01 04:31:24;;;;;;;6.93;2.60;;;13.10;99.90;;;;;;5006494;28;20048;-63
2022/10/01 04:38:15;;;;;;;4.33;1.33;;;13.30;99.90;;;;;;5014723;28;20053;-64
2022/10/01 04:41:19;;;;;;;5.40;1.50;;;13.40;99.90;;;;;;5013947;28;20049;-63
2022/10/01 04:44:23;;;;;;;1.40;1.10;;;13.30;99.90;;;;;;5013927;28;20049;-63
2022/10/01 04:47:27;;;;;;;2.60;0.95;;;13.30;99.90;;;;;;5014036;28;20060;-64
2022/10/01 04:50:49;;;;;;;;;;;13.30;99.90;;;;;;5014276;28;20045;-63
2022/10/01 04:53:54;;;;;;;2.72;1.02;;;13.30;99.90;;;;;;5013362;28;19917;-63
2022/10/01 04:57:21;;;;;;;4.20;1.30;;;13.20;99.90;;;;;;5013861;28;20041;-63
2022/10/01 05:00:25;;;;;;;4.78;1.35;;;13.20;99.90;;;;;;5014014;28;20069;-63
2022/10/01 05:03:29;;;;;;;5.38;1.08;;;13.10;99.90;;;;;;5013806;28;20121;-63
2022/10/01 05:06:51;;;;;;;2.83;1.13;;;13.10;99.90;;;;;;5013759;28;20041;-63
2022/10/01 05:09:56;;;;;;;3.42;1.30;;;13.10;99.90;;;;;;5013943;28;20060;-64
2022/10/01 05:13:18;;;;;;;8.30;1.98;;;13.10;99.90;;;;;;5013481;28;20053;-64
2022/10/01 05:16:22;;;;;;;;;;;12.90;99.90;;;;;;5014345;28;20041;-63
2022/10/01 05:22:49;;;;;;;4.22;2.15;;;12.70;99.90;;;;;;5013285;28;20507;-63
2022/10/01 05:29:17;;;;;;;;;;;12.60;99.90;;;;;;5024612;28;20049;-64
2022/10/01 05:32:21;;;;;;;9.35;4.05;;;12.60;99.90;;;;;;5013133;28;20276;-64
2022/10/01 05:35:26;;;;;;;6.65;3.60;;;12.70;99.90;;;;;;5013040;28;20056;-63
2022/10/01 05:38:30;;;;;;;4.60;2.58;;;12.90;99.90;;;;;;5013361;28;20069;-63
2022/10/01 05:41:34;;;;;;;3.47;2.85;;;13.00;99.90;;;;;;5013279;28;20175;-64
2022/10/01 05:44:58;;;;;;;10.05;5.43;;;13.10;99.90;;;;;;5012492;28;20041;-64
2022/10/01 05:48:20;;;;;;;;;;;13.20;99.90;;;;;;5013199;28;20044;-64
2022/10/01 05:51:25;;;;;;;19.73;11.57;;;13.40;99.90;;;;;;5012783;28;20276;-64
2022/10/01 05:54:48;;;;;;;18.42;11.15;;;13.40;99.90;;;;;;5012439;28;20060;-64
2022/10/01 05:58:15;;;;;;;18.10;11.55;;;13.60;99.90;;;;;;5013121;28;20516;-63
2022/10/01 06:01:37;;;;;;;15.32;10.23;;;13.70;99.90;;;;;;5012921;28;20041;-63
2022/10/01 06:04:41;;;;;;;10.93;7.82;;;13.90;99.90;;;;;;5011916;28;20044;-64
2022/10/01 06:07:47;;;;;;;8.45;5.43;;;14.10;99.90;;;;;;5012714;28;20049;-63
2022/10/01 06:11:10;;;;;;;5.15;4.05;;;14.30;99.90;;;;;;5012813;28;20061;-64
2022/10/01 06:14:33;;;;;;;12.73;5.50;;;14.50;99.90;;;;;;5012231;28;20053;-65
2022/10/01 06:17:42;;;;;;;6.70;4.65;;;14.70;99.90;;;;;;5012370;28;20397;-64
2022/10/01 06:21:07;;;;;;;7.57;4.88;;;14.80;99.90;;;;;;5012159;28;20049;-64
2022/10/01 06:24:48;;;;;;;8.77;5.03;;;14.90;99.90;;;;;;5011965;28;20328;-64
2022/10/01 06:27:55;;;;;;;4.78;3.83;;;15.10;99.90;;;;;;5012009;28;20037;-64
2022/10/01 06:31:03;;;;;;;4.80;3.05;;;15.30;99.90;;;;;;5011250;28;20365;-64
2022/10/01 06:34:06;;;;;;;5.65;2.53;;;15.50;99.90;;;;;;5012151;28;20033;-64
2022/10/01 06:40:32;;;;;;;7.75;2.35;;;16.70;99.90;;;;;;5012127;28;20385;-65
2022/10/01 06:46:59;;;;;;;5.00;2.22;;;16.40;99.90;;;;;;5012384;28;20049;-65
2022/10/01 06:50:40;;;;;;;4.78;2.45;;;17.70;99.90;;;;;;5011519;28;20498;-65
2022/10/01 06:53:45;;;;;;;9.38;3.60;;;20.20;99.90;;;;;;5011144;28;20044;-65
2022/10/01 07:00:32;;;;;;;7.80;5.63;;;20.70;99.90;;;;;;5011815;28;20036;-64
2022/10/01 07:03:55;;;;;;;8.30;6.00;;;19.60;99.90;;;;;;5011066;28;20049;-64
2022/10/01 07:07:18;;;;;;;9.27;6.43;;;18.60;99.90;;;;;;5011581;28;20049;-64
2022/10/01 07:10:22;;;;;;;7.57;5.45;;;18.00;99.90;;;;;;5011705;28;20045;-64
2022/10/01 07:13:26;;;;;;;9.38;6.40;;;17.80;99.90;;;;;;5011251;28;20044;-64
2022/10/01 07:16:30;;;;;;;7.32;5.60;;;17.50;99.90;;;;;;5011370;28;20041;-64
2022/10/01 07:19:34;;;;;;;6.55;5.85;;;17.60;99.90;;;;;;5011186;28;20040;-64
2022/10/01 07:22:38;;;;;;;11.90;5.80;;;18.30;99.90;;;;;;5011128;28;20053;-64
2022/10/01 07:25:43;;;;;;;8.15;5.45;;;18.60;99.90;;;;;;5011355;28;20048;-64
2022/10/01 07:28:47;;;;;;;8.95;5.68;;;18.50;99.90;;;;;;5011558;28;20041;-65
2022/10/01 07:32:14;;;;;;;10.40;5.38;;;18.50;99.90;;;;;;5010899;28;20040;-64
2022/10/01 07:35:19;;;;;;;5.18;3.70;;;19.30;99.90;;;;;;5011440;28;20045;-65
2022/10/01 07:38:24;;;;;;;5.57;2.25;;;23.10;99.90;;;;;;5011792;28;20065;-66
2022/10/01 07:41:47;;;;;;;2.65;1.63;;;26.30;99.90;;;;;;5011401;28;20048;-65
2022/10/01 07:44:50;;;;;;;2.90;1.48;;;27.60;99.90;;;;;;5010668;28;20048;-64
2022/10/01 07:47:59;;;;;;;3.78;1.30;;;29.10;99.90;;;;;;5011366;28;20049;-65
2022/10/01 07:51:04;;;;;;;2.15;1.02;;;30.70;99.90;;;;;;5011121;28;20057;-65
2022/10/01 07:54:08;;;;;;;3.55;1.30;;;33.50;98.00;;;;;;5010558;28;20065;-66
2022/10/01 07:57:33;;;;;;;3.55;0.80;;;33.50;98.20;;;;;;5011143;28;20062;-63
2022/10/01 08:00:59;;;;;;;5.20;0.88;;;33.50;96.50;;;;;;5011238;28;20053;-65
2022/10/01 08:05:16;;;;;;;4.47;1.27;;;31.70;96.10;;;;;;5010243;28;20492;-65
2022/10/01 08:11:30;;;;;;;1.90;1.08;;;27.00;99.90;;;;;;5014757;28;20045;-66
2022/10/01 08:14:34;;;;;;;7.35;1.45;;;25.70;99.90;;;;;;5014337;28;20049;-65
2022/10/01 08:17:57;;;;;;;2.47;1.38;;;25.70;99.90;;;;;;5015192;28;20053;-65
2022/10/01 08:21:39;;;;;;;2.42;0.70;;;25.60;99.90;;;;;;5014699;28;20044;-65
2022/10/01 08:25:20;;;;;;;3.05;1.38;;;25.60;99.90;;;;;;5013951;28;20044;-65
2022/10/01 08:28:24;;;;;;;2.25;0.68;;;26.90;99.90;;;;;;5014865;28;20061;-65
2022/10/01 08:31:28;;;;;;;2.70;0.80;;;29.60;99.90;;;;;;5013744;28;20068;-65
2022/10/01 08:34:32;;;;;;;2.10;0.90;;;31.50;97.40;;;;;;5014342;28;20053;-65
2022/10/01 08:41:12;;;;;;;2.90;1.13;;;32.50;94.50;;;;;;5014383;28;20044;-65
2022/10/01 08:44:26;;;;;;;2.83;1.20;;;30.00;96.80;;;;;;5013868;28;20045;-65
2022/10/01 08:47:35;;;;;;;3.15;1.17;;;28.90;97.70;;;;;;5014403;28;20053;-65
2022/10/01 08:50:53;;;;;;;3.25;0.93;;;31.40;97.40;;;;;;5014758;28;20041;-63
2022/10/01 08:57:57;;;;;;;3.50;0.80;;;34.00;91.40;;;;;;5013683;28;20053;-65
2022/10/01 09:01:01;;;;;;;2.63;1.00;;;32.40;92.70;;;;;;5014007;28;20041;-63
2022/10/01 09:04:05;;;;;;;2.30;0.80;;;32.50;93.20;;;;;;5013290;28;20037;-65
2022/10/01 09:07:25;;;;;;;2.90;1.00;;;31.80;93.00;;;;;;5013465;28;20041;-66
2022/10/01 09:10:50;;;;;;;3.43;1.00;;;29.70;95.10;;;;;;5013709;28;20049;-65
2022/10/01 09:14:07;;;;;;;2.33;0.88;;;27.70;96.50;;;;;;5013710;28;20393;-65
2022/10/01 09:17:43;;;;;;;1.52;0.75;;;29.00;96.90;;;;;;5014064;28;20105;-63
2022/10/01 09:21:31;;;;;;;1.17;0.80;;;32.60;93.70;;;;;;5013665;28;20372;-64
2022/10/01 09:24:52;;;;;;;2.55;0.90;;;36.10;92.80;;;;;;5013939;28;20045;-64
2022/10/01 09:28:20;;;;;;;2.67;0.73;;;38.40;85.80;;;;;;5013237;28;20049;-64
2022/10/01 09:31:25;;;;;;;4.28;0.80;;;39.40;82.60;;;;;;5013026;28;20060;-64
2022/10/01 09:34:38;;;;;;;2.60;0.60;;;39.40;79.90;;;;;;5013130;28;20049;-64
2022/10/01 09:37:56;;;;;;;2.80;0.70;;;39.90;78.80;;;;;;5013211;28;20041;-64
2022/10/01 09:41:00;;;;;;;3.40;0.77;;;39.50;76.60;;;;;;5013137;28;20049;-64
2022/10/01 09:44:28;;;;;;;3.75;0.70;;;35.60;76.10;;;;;;5012910;28;20060;-64
2022/10/01 09:48:11;;;;;;;3.75;0.80;;;36.00;76.50;;;;;;5012950;28;20045;-63
2022/10/01 09:51:21;;;;;;;3.55;1.00;;;36.80;77.00;;;;;;5012886;28;20049;-64
2022/10/01 09:54:44;;;;;;;;;;;34.10;75.20;;;;;;5023631;28;20053;-64
2022/10/01 09:57:52;;;;;;;4.53;1.55;;;35.90;79.20;;;;;;5012879;28;19933;-63
2022/10/01 10:05:12;;;;;;;5.20;0.98;;;39.90;74.70;;;;;;5012528;28;20041;-64
2022/10/01 10:08:35;;;;;;;4.55;0.90;;;39.10;71.70;;;;;;5012261;28;20049;-64
2022/10/01 10:11:41;;;;;;;1.98;1.00;;;39.70;73.70;;;;;;5012503;28;20048;-64
2022/10/01 10:14:46;;;;;;;6.07;1.20;;;37.10;72.70;;;;;;5012407;28;20045;-64
2022/10/01 10:17:50;;;;;;;3.33;1.10;;;37.70;73.70;;;;;;5012032;28;20397;-64
2022/10/01 10:21:20;;;;;;;3.65;0.88;;;38.70;72.80;;;;;;5012235;28;20041;-65
2022/10/01 10:24:33;;;;;;;5.20;1.33;;;38.40;71.70;;;;;;5012391;28;20053;-64
2022/10/01 10:27:58;;;;;;;3.05;0.80;;;36.30;70.00;;;;;;5012230;28;20040;-64
2022/10/01 10:31:07;;;;;;;5.70;1.17;;;38.10;73.10;;;;;;5010795;28;20041;-64
2022/10/01 10:34:39;;;;;;;4.93;1.52;;;39.40;69.90;;;;;;5011951;28;20057;-64
2022/10/01 10:42:13;;;;;;;1.95;0.60;;;42.70;68.10;;;;;;5012057;28;20045;-64
2022/10/01 10:45:21;;;;;;;5.40;0.73;;;36.60;68.80;;;;;;5011835;28;20764;-63
2022/10/01 10:48:44;;;;;;;2.63;0.80;;;38.30;67.80;;;;;;5012148;28;20041;-64
2022/10/01 10:52:45;;;;;;;2.17;0.60;;;36.20;65.70;;;;;;5011164;28;20048;-66
2022/10/01 10:55:59;;;;;;;3.72;0.77;;;33.80;69.10;;;;;;5011831;28;20052;-66
2022/10/01 10:59:09;;;;;;;5.80;0.60;;;34.00;74.20;;;;;;5011918;28;20401;-62
2022/10/01 11:02:32;;;;;;;5.95;0.82;;;35.20;70.00;;;;;;5011513;28;20045;-65
2022/10/01 11:05:42;;;;;;;3.30;0.80;;;32.70;69.20;;;;;;5011653;28;20117;-66
2022/10/01 11:08:56;;;;;;;5.43;0.93;;;34.50;71.10;;;;;;5011366;28;20045;-64
2022/10/01 11:12:18;;;;;;;2.15;0.73;;;35.90;70.00;;;;;;5011400;28;20049;-65
2022/10/01 11:16:00;;;;;;;3.53;0.70;;;31.10;72.70;;;;;;5011193;28;20516;-65
2022/10/01 11:19:41;;;;;;;7.78;0.88;;;32.40;75.80;;;;;;5011478;28;20040;-65
2022/10/01 11:22:45;;;;;;;4.22;0.80;;;33.70;73.30;;;;;;5011230;28;20041;-65
2022/10/01 11:26:27;;;;;;;2.45;0.95;;;35.60;71.80;;;;;;5011008;28;20037;-65
2022/10/01 11:29:49;;;;;;;5.22;1.00;;;31.10;71.60;;;;;;5011553;28;20045;-64
2022/10/01 11:33:45;;;;;;;4.28;1.00;;;28.80;77.90;;;;;;5010591;28;20393;-64
2022/10/01 11:37:29;;;;;;;7.07;1.45;;;29.30;78.80;;;;;;5011168;28;20037;-64
2022/10/01 11:40:46;;;;;;;6.47;1.13;;;31.00;77.20;;;;;;5011046;28;20507;-64
2022/10/01 11:43:57;;;;;;;4.72;1.45;;;33.40;74.70;;;;;;5011003;28;20049;-65
2022/10/01 11:47:14;;;;;;;2.70;0.70;;;35.40;75.20;;;;;;5011242;28;20049;-65
2022/10/01 11:50:26;;;;;;;3.45;0.90;;;36.80;71.50;;;;;;5011159;28;20065;-65
2022/10/01 11:53:39;;;;;;;3.85;1.10;;;36.60;70.60;;;;;;5010935;28;20393;-64
2022/10/01 12:00:13;;;;;;;5.95;1.10;;;32.50;73.70;;;;;;5010854;28;20484;-64
2022/10/01 12:03:51;;;;;;;3.95;0.82;;;31.10;77.60;;;;;;5010579;28;20659;-65
2022/10/01 12:07:26;;;;;;;3.25;1.10;;;32.40;77.00;;;;;;5010869;28;20044;-65
2022/10/01 12:11:08;;;;;;;6.38;1.42;;;33.00;76.50;;;;;;5010935;28;20053;-64
2022/10/01 12:14:18;;;;;;;6.80;1.85;;;33.90;75.70;;;;;;5010864;28;20057;-64
2022/10/01 12:17:34;;;;;;;4.80;1.10;;;33.60;74.60;;;;;;5010901;28;20381;-65
2022/10/01 12:21:07;;;;;;;4.00;0.90;;;33.10;74.50;;;;;;5011006;28;20061;-64
2022/10/01 12:24:14;;;;;;;3.53;1.02;;;31.50;76.30;;;;;;5010600;28;20056;-64
2022/10/01 12:31:50;;;;;;;4.57;1.08;;;29.40;80.60;;;;;;5010698;28;20045;-63
2022/10/01 12:35:16;;;;;;;2.67;1.10;;;28.80;82.50;;;;;;5010700;28;20073;-64
2022/10/01 12:38:45;;;;;;;6.03;1.20;;;28.00;84.00;;;;;;5010658;28;20400;-63
2022/10/01 12:45:36;;;;;;;6.55;1.40;;;28.40;82.50;;;;;;5010916;28;20057;-64
2022/10/01 12:49:21;;;;;;;5.10;0.98;;;27.60;87.00;;;;;;5010323;28;20042;-64
2022/10/01 12:52:55;;;;;;;4.88;1.17;;;29.30;83.60;;;;;;5010360;28;20045;-64
2022/10/01 12:56:28;;;;;;;3.28;0.82;;;31.60;82.10;;;;;;5013907;28;20045;-64
2022/10/01 12:59:58;;;;;;;5.88;1.30;;;33.70;79.10;;;;;;5013881;28;20036;-65
2022/10/01 13:03:27;;;;;;;9.95;1.83;;;35.00;77.10;;;;;;5014131;28;20049;-64
2022/10/01 13:07:00;;;;;;;5.82;1.30;;;32.90;76.60;;;;;;5013974;28;20044;-64
2022/10/01 13:10:08;;;;;;;8.73;1.20;;;30.60;80.00;;;;;;5014767;28;20040;-63
2022/10/01 13:13:32;;;;;;;4.10;1.27;;;28.70;83.60;;;;;;5013642;28;20049;-64
2022/10/01 13:20:26;;;;;;;7.93;1.15;;;30.50;81.60;;;;;;5013610;28;20407;-64
2022/10/01 13:23:46;;;;;;;5.30;1.08;;;30.70;80.80;;;;;;5012802;28;20047;-65
2022/10/01 13:26:56;;;;;;;9.13;1.30;;;30.50;82.80;;;;;;5013300;28;20041;-64
2022/10/01 13:30:23;;;;;;;3.85;1.20;;;31.40;80.90;;;;;;5013373;28;20139;-64
2022/10/01 13:33:55;;;;;;;5.68;1.42;;;32.30;80.70;;;;;;5012766;28;20109;-64
2022/10/01 13:37:17;;;;;;;8.73;1.77;;;32.00;78.30;;;;;;5013752;28;20045;-63
2022/10/01 13:40:40;;;;;;;3.83;1.35;;;30.40;80.70;;;;;;5013603;28;20041;-63
2022/10/01 13:43:58;;;;;;;3.50;1.35;;;29.30;83.30;;;;;;5013368;28;20048;-64
2022/10/01 13:50:29;;;;;;;3.10;1.27;;;30.30;81.60;;;;;;5013060;28;20037;-64
2022/10/01 13:53:42;;;;;;;3.70;1.20;;;30.30;82.70;;;;;;5012571;28;20053;-65
2022/10/01 13:56:46;;;;;;;7.97;1.80;;;30.30;83.40;;;;;;5012950;28;20040;-64
2022/10/01 14:00:12;;;;;;;4.93;1.35;;;30.20;83.50;;;;;;5013014;28;20049;-64
2022/10/01 14:04:12;;;;;;;6.85;1.90;;;30.30;82.80;;;;;;5012582;28;20074;-64
2022/10/01 14:07:36;;;;;;;;;;;29.40;83.10;;;;;;5012981;28;20044;-64
2022/10/01 14:18:15;;;;;;;4.32;1.20;;;29.60;84.50;;;;;;5016919;28;20555;-65
2022/10/01 14:21:57;;;;;;;2.55;0.70;;;26.80;81.70;;;;;;5012524;28;20041;-64
2022/10/01 14:25:35;;;;;;;3.08;0.70;;;27.00;82.70;;;;;;5012491;28;20048;-64
2022/10/01 14:29:01;;;;;;;5.40;1.20;;;25.10;82.20;;;;;;5012280;28;20037;-64
2022/10/01 14:32:42;;;;;;;4.45;0.95;;;24.30;85.50;;;;;;5011889;28;20044;-63
2022/10/01 14:36:21;;;;;;;1.83;0.88;;;25.70;83.00;;;;;;5011753;28;20041;-64
2022/10/01 14:39:27;;;;;;;3.40;1.40;;;24.60;83.80;;;;;;5012091;28;20040;-64
2022/10/01 14:42:31;;;;;;;3.83;0.90;;;24.60;87.30;;;;;;5012356;28;20503;-64
2022/10/01 14:45:36;;;;;;;6.03;0.88;;;24.50;83.80;;;;;;5012074;28;20056;-64
2022/10/01 14:52:16;;;;;;;2.92;0.90;;;24.80;85.60;;;;;;5012179;28;20049;-63
2022/10/01 14:55:22;;;;;;;1.52;0.35;;;24.90;83.20;;;;;;5011684;28;20159;-63
2022/10/01 14:58:27;;;;;;;3.53;0.68;;;24.80;82.40;;;;;;5012199;28;20049;-63
2022/10/01 15:01:58;;;;;;;2.10;0.98;;;24.10;85.80;;;;;;5011593;28;20508;-64
2022/10/01 15:05:21;;;;;;;3.97;0.60;;;24.10;82.90;;;;;;5011420;28;20045;-63
2022/10/01 15:12:04;;;;;;;4.85;0.80;;;21.80;85.70;;;;;;5011644;28;20056;-64
2022/10/01 15:15:20;;;;;;;4.40;0.80;;;21.20;88.40;;;;;;5021750;28;20049;-64
2022/10/01 15:22:08;;;;;;;2.55;0.90;;;21.00;92.30;;;;;;5011045;28;20397;-64
2022/10/01 15:25:26;;;;;;;4.13;0.70;;;20.90;92.80;;;;;;5010922;28;20045;-65
2022/10/01 15:28:33;;;;;;;3.42;0.90;;;21.20;93.70;;;;;;5011463;28;20040;-64
2022/10/01 15:31:38;;;;;;;5.70;0.80;;;20.80;92.30;;;;;;5011419;28;20048;-64
2022/10/01 15:34:47;;;;;;;6.40;1.08;;;20.70;94.00;;;;;;5010920;28;20417;-64
2022/10/01 15:37:52;;;;;;;6.05;1.30;;;21.00;94.40;;;;;;5011361;28;20040;-64
2022/10/01 15:48:04;;;;;;;5.00;1.65;;;21.30;95.60;;;;;;5011483;28;20049;-64
2022/10/01 15:51:25;;;;;;;6.20;1.10;;;21.00;94.90;;;;;;5011106;28;20053;-64
2022/10/01 15:54:29;;;;;;;3.80;0.80;;;20.90;96.30;;;;;;5010418;28;20401;-64
2022/10/01 15:57:33;;;;;;;7.07;1.25;;;20.80;96.50;;;;;;5011311;28;20052;-65
2022/10/01 16:01:04;;;;;;;4.95;1.25;;;20.50;97.50;;;;;;5010950;28;20069;-64
2022/10/01 16:04:12;;;;;;;;;;;20.20;98.40;;;;;;5010709;28;20044;-64
2022/10/01 16:07:35;;;;;;;6.40;1.08;;;19.70;98.40;;;;;;5010982;28;19909;-64
2022/10/01 16:10:39;;;;;;;7.53;1.30;;;19.60;98.50;;;;;;5010797;28;20041;-64
2022/10/01 16:13:46;;;;;;;4.43;1.20;;;19.40;99.50;;;;;;5010646;28;20401;-64
2022/10/01 16:17:10;;;;;;;4.88;0.82;;;19.10;99.40;;;;;;5010862;28;20045;-64
2022/10/01 16:20:14;;;;;;;3.95;1.00;;;19.10;99.90;;;;;;5023803;28;20033;-63
2022/10/01 16:26:59;;;;;;;5.40;1.23;;;18.80;99.90;;;;;;5009697;28;20037;-64
2022/10/01 16:30:06;;;;;;;7.40;1.30;;;18.50;99.90;;;;;;5014740;28;20045;-64
2022/10/01 16:33:10;;;;;;;5.38;1.13;;;18.30;99.90;;;;;;5014158;28;20114;-64
2022/10/01 16:36:19;;;;;;;6.53;0.90;;;18.10;99.90;;;;;;5014684;28;20060;-64
2022/10/01 16:39:23;;;;;;;5.38;0.80;;;18.10;99.90;;;;;;5014061;28;20504;-64
2022/10/01 16:43:06;;;;;;;7.82;0.98;;;17.90;99.90;;;;;;5015197;28;20048;-64
2022/10/01 16:46:29;;;;;;;11.80;1.38;;;17.80;99.90;;;;;;5014659;28;20056;-64
2022/10/01 16:49:33;;;;;;;3.00;1.13;;;17.70;99.90;;;;;;5002328;28;20528;-64
2022/10/01 16:52:38;;;;;;;5.90;1.45;;;17.60;99.90;;;;;;5014346;28;20045;-64
2022/10/01 16:55:44;;;;;;;4.50;1.00;;;17.60;99.90;;;;;;5014310;28;20045;-64
2022/10/01 16:58:47;;;;;;;4.72;1.20;;;17.50;99.90;;;;;;5014203;28;20045;-64
2022/10/01 17:01:54;;;;;;;7.45;1.23;;;17.50;99.90;;;;;;4990743;28;20049;-64
2022/10/01 17:08:21;;;;;;;3.47;1.10;;;17.60;99.90;;;;;;5014045;28;20045;-64
2022/10/01 17:11:27;;;;;;;2.80;0.73;;;17.60;99.90;;;;;;5013845;28;20056;-64
2022/10/01 17:14:31;;;;;;;3.15;1.00;;;17.60;99.90;;;;;;5013372;28;20049;-65
2022/10/01 17:17:35;;;;;;;5.10;1.30;;;17.50;99.90;;;;;;5014089;28;20511;-64
2022/10/01 17:24:01;;;;;;;3.80;1.25;;;17.40;99.90;;;;;;5013408;28;20053;-64
2022/10/01 17:30:31;;;;;;;7.07;3.10;;;17.40;99.90;;;;;;5013791;28;20084;-64
2022/10/01 17:36:58;;;;;;;;;;;17.50;99.90;;;;;;5013665;28;20049;-63
2022/10/01 17:40:04;;;;;;;5.65;1.30;;;17.40;99.90;;;;;;5013048;28;19914;-64
2022/10/01 17:43:12;;;;;;;6.07;1.10;;;17.20;99.90;;;;;;5013116;28;20508;-63
2022/10/01 17:46:16;;;;;;;8.57;1.50;;;17.00;99.90;;;;;;5013286;28;20052;-63
2022/10/01 17:49:38;;;;;;;4.05;1.30;;;16.90;99.90;;;;;;5012990;28;20053;-64
2022/10/01 17:52:43;;;;;;;8.98;2.08;;;16.80;99.90;;;;;;5012473;28;20045;-64
2022/10/01 17:55:49;;;;;;;8.07;1.63;;;16.70;99.90;;;;;;5013226;28;20045;-63
2022/10/01 17:59:12;;;;;;;12.13;1.92;;;16.50;99.90;;;;;;5013105;28;20041;-63
2022/10/01 18:02:16;;;;;;;15.73;2.70;;;16.40;99.90;;;;;;5013123;28;20400;-64
2022/10/01 18:05:21;;;;;;;11.57;1.85;;;16.30;99.90;;;;;;5012587;28;20049;-64
2022/10/01 18:09:02;;;;;;;8.23;1.83;;;16.20;99.90;;;;;;5012881;28;20049;-63
2022/10/01 18:12:06;;;;;;;13.52;1.73;;;16.20;99.90;;;;;;5012436;28;20045;-63
2022/10/01 18:15:28;;;;;;;8.35;1.92;;;16.20;99.90;;;;;;5011986;28;20053;-63
2022/10/01 18:18:33;;;;;;;;;;;16.10;99.90;;;;;;5013227;28;20053;-63
2022/10/01 18:21:37;;;;;;;14.13;2.08;;;16.00;99.90;;;;;;5012389;28;19913;-64
2022/10/01 18:25:19;;;;;;;11.57;2.25;;;16.00;99.90;;;;;;5012055;28;20049;-64
2022/10/01 18:28:24;;;;;;;13.45;1.92;;;16.00;99.90;;;;;;5012176;28;20401;-64
2022/10/01 18:31:50;;;;;;;14.82;2.75;;;16.00;99.90;;;;;;5012505;28;20042;-64
2022/10/01 18:34:57;;;;;;;12.63;2.35;;;16.00;99.90;;;;;;5012116;28;20393;-63
2022/10/01 18:41:39;;;;;;;11.93;2.60;;;16.10;99.90;;;;;;5011696;28;20045;-64
2022/10/01 18:44:49;;;;;;;16.20;2.70;;;16.20;99.90;;;;;;5011768;28;21076;-63
2022/10/01 18:48:16;;;;;;;13.05;2.25;;;16.20;99.90;;;;;;5012448;28;20515;-63
2022/10/01 18:51:50;;;;;;;8.18;2.33;;;16.20;99.90;;;;;;5010469;28;20049;-64
2022/10/01 18:55:16;;;;;;;18.55;2.78;;;16.20;99.90;;;;;;4988039;28;20041;-64
2022/10/01 18:58:39;;;;;;;14.75;2.67;;;16.20;99.90;;;;;;5011892;28;20048;-63
2022/10/01 19:02:39;;;;;;;18.92;2.92;;;16.30;99.90;;;;;;5011712;28;20041;-65
2022/10/01 19:05:50;;;;;;;15.98;2.28;;;16.40;99.90;;;;;;5010594;28;20052;-63
2022/10/01 19:09:24;;;;;;;21.85;3.17;;;16.50;99.90;;;;;;5011087;28;20044;-63
2022/10/01 19:12:47;;;;;;;26.75;3.35;;;16.60;99.90;;;;;;5013896;28;20392;-63